Time,TemperatureF,DewpointF,PressureIn,WindDirection,WindDirectionDegrees,WindSpeedMPH,WindSpeedGustMPH,Humidity,HourlyPrecipIn,Conditions,Clouds,dailyrainin,SoftwareType,DateUTC
2013-03-01 00:04:00,29.3,24.6,29.37,North,0,0.0,-999.0,82,0.00,,,-99.99,,2013-03-01 09:04:00,
2013-03-01 00:09:00,29.3,24.8,29.37,North,0,0.0,-999.0,82,0.00,,,-99.99,,2013-03-01 09:09:00,
2013-03-01 00:14:00,29.4,24.9,29.37,North,0,0.0,-999.0,83,0.00,,,-99.99,,2013-03-01 09:14:00,
2013-03-01 00:19:00,29.5,24.9,29.37,North,0,0.0,-999.0,82,0.00,,,-99.99,,2013-03-01 09:19:00,
2013-03-01 00:24:00,29.6,24.8,29.37,North,0,0.0,-999.0,82,0.00,,,-99.99,,2013-03-01 09:24:00,
2013-03-01 00:29:00,29.7,24.8,29.37,North,0,0.0,-999.0,81,0.00,,,-99.99,,2013-03-01 09:29:00,
2013-03-01 00:34:00,29.5,24.8,29.37,North,0,0.0,-999.0,82,0.00,,,-99.99,,2013-03-01 09:34:00,
2013-03-01 00:39:00,29.6,24.5,29.37,North,0,0.0,-999.0,81,0.00,,,-99.99,,2013-03-01 09:39:00,
2013-03-01 00:44:00,29.5,24.8,29.37,North,0,0.0,-999.0,82,0.00,,,-99.99,,2013-03-01 09:44:00,
2013-03-01 00:49:00,29.5,24.8,29.37,North,0,0.0,-999.0,82,0.00,,,-99.99,,2013-03-01 09:49:00,
2013-03-01 00:54:00,29.9,24.9,29.37,North,0,0.0,-999.0,81,0.00,,,-99.99,,2013-03-01 09:54:00,
2013-03-01 00:59:00,29.9,25.0,29.39,North,0,0.0,-999.0,81,0.00,,,-99.99,,2013-03-01 09:59:00,
2013-03-01 01:04:00,29.9,24.9,29.39,North,0,0.0,-999.0,81,0.00,,,-99.99,,2013-03-01 10:04:00,
2013-03-01 01:09:00,30.2,25.2,29.39,North,0,0.0,-999.0,81,0.00,,,-99.99,,2013-03-01 10:09:00,
2013-03-01 01:14:00,30.3,24.8,29.39,North,0,0.0,-999.0,79,0.00,,,-99.99,,2013-03-01 10:14:00,
2013-03-01 01:19:00,30.8,24.7,29.39,North,0,0.0,-999.0,77,0.00,,,-99.99,,2013-03-01 10:19:00,
2013-03-01 01:24:00,30.5,24.7,29.39,North,0,0.0,-999.0,78,0.00,,,-99.99,,2013-03-01 10:24:00,
2013-03-01 01:29:00,30.5,24.8,29.39,North,0,0.0,-999.0,78,0.00,,,-99.99,,2013-03-01 10:29:00,
2013-03-01 01:34:00,30.3,24.9,29.39,North,0,0.0,-999.0,80,0.00,,,-99.99,,2013-03-01 10:34:00,
2013-03-01 01:39:00,30.0,25.0,29.39,North,0,0.0,-999.0,81,0.00,,,-99.99,,2013-03-01 10:39:00,
2013-03-01 01:44:00,30.2,25.0,29.39,North,0,0.0,-999.0,80,0.00,,,-99.99,,2013-03-01 10:44:00,
2013-03-01 01:50:00,30.0,24.5,29.39,North,0,0.0,-999.0,79,0.00,,,-99.99,,2013-03-01 10:50:00,
2013-03-01 01:55:00,30.0,24.2,29.39,North,0,0.0,-999.0,78,0.00,,,-99.99,,2013-03-01 10:55:00,
2013-03-01 02:00:00,29.8,23.9,29.42,North,0,0.0,-999.0,78,0.00,,,-99.99,,2013-03-01 11:00:00,
2013-03-01 02:05:00,29.5,23.8,29.42,North,0,0.0,-999.0,78,0.00,,,-99.99,,2013-03-01 11:05:00,
2013-03-01 02:11:00,29.1,24.0,29.42,North,0,0.0,-999.0,80,0.00,,,-99.99,,2013-03-01 11:11:00,
2013-03-01 02:18:00,28.9,24.0,29.42,North,0,0.0,-999.0,81,0.00,,,-99.99,,2013-03-01 11:18:00,
2013-03-01 02:23:00,28.9,24.1,29.42,North,0,0.0,-999.0,82,0.00,,,-99.99,,2013-03-01 11:23:00,
2013-03-01 02:29:00,28.7,24.2,29.42,North,0,0.0,-999.0,83,0.00,,,-99.99,,2013-03-01 11:29:00,
2013-03-01 02:34:00,28.5,23.7,29.42,North,0,0.0,-999.0,81,0.00,,,-99.99,,2013-03-01 11:34:00,
2013-03-01 02:40:00,28.8,24.0,29.42,North,0,0.0,-999.0,81,0.00,,,-99.99,,2013-03-01 11:40:00,
2013-03-01 02:45:00,28.6,23.8,29.42,North,0,0.0,-999.0,81,0.00,,,-99.99,,2013-03-01 11:45:00,
2013-03-01 02:50:00,28.8,24.1,29.42,North,0,0.0,-999.0,82,0.00,,,-99.99,,2013-03-01 11:50:00,
2013-03-01 02:55:00,28.6,24.0,29.42,North,0,0.0,-999.0,82,0.00,,,-99.99,,2013-03-01 11:55:00,
2013-03-01 03:00:00,28.5,24.3,29.43,North,0,0.0,-999.0,83,0.00,,,-99.99,,2013-03-01 12:00:00,
2013-03-01 03:05:00,28.4,24.2,29.43,North,0,0.0,-999.0,84,0.00,,,-99.99,,2013-03-01 12:05:00,
2013-03-01 03:10:00,28.8,24.8,29.43,North,0,0.0,-999.0,85,0.00,,,-99.99,,2013-03-01 12:10:00,
2013-03-01 03:16:00,29.1,24.8,29.43,North,0,0.0,-999.0,83,0.00,,,-99.99,,2013-03-01 12:16:00,
2013-03-01 03:21:00,29.5,24.0,29.43,North,0,0.0,-999.0,79,0.00,,,-99.99,,2013-03-01 12:21:00,
2013-03-01 03:26:00,29.6,24.8,29.43,North,0,0.0,-999.0,81,0.00,,,-99.99,,2013-03-01 12:26:00,
2013-03-01 03:31:00,29.5,24.8,29.43,North,0,0.0,-999.0,82,0.00,,,-99.99,,2013-03-01 12:31:00,
2013-03-01 03:36:00,29.2,24.2,29.43,North,0,0.0,-999.0,81,0.00,,,-99.99,,2013-03-01 12:36:00,
2013-03-01 03:41:00,29.4,24.2,29.43,North,0,0.0,-999.0,80,0.00,,,-99.99,,2013-03-01 12:41:00,
2013-03-01 03:46:00,29.3,24.4,29.43,North,0,0.0,-999.0,81,0.00,,,-99.99,,2013-03-01 12:46:00,
2013-03-01 03:51:00,29.1,24.3,29.43,North,0,0.0,-999.0,82,0.00,,,-99.99,,2013-03-01 12:51:00,
2013-03-01 03:56:00,29.2,24.3,29.43,North,0,0.0,-999.0,81,0.00,,,-99.99,,2013-03-01 12:56:00,
2013-03-01 04:01:00,29.2,24.2,29.46,North,0,0.0,-999.0,81,0.00,,,-99.99,,2013-03-01 13:01:00,
2013-03-01 04:06:00,29.1,24.1,29.46,North,0,0.0,-999.0,81,0.00,,,-99.99,,2013-03-01 13:06:00,
2013-03-01 04:11:00,28.7,24.0,29.46,North,0,0.0,-999.0,82,0.00,,,-99.99,,2013-03-01 13:11:00,
2013-03-01 04:16:00,28.4,24.0,29.46,North,0,0.0,-999.0,83,0.00,,,-99.99,,2013-03-01 13:16:00,
2013-03-01 04:21:00,28.8,24.7,29.46,North,0,0.0,-999.0,84,0.00,,,-99.99,,2013-03-01 13:21:00,
2013-03-01 04:26:00,28.8,24.6,29.46,North,0,0.0,-999.0,84,0.00,,,-99.99,,2013-03-01 13:26:00,
2013-03-01 04:31:00,28.6,24.4,29.46,North,0,0.0,-999.0,84,0.00,,,-99.99,,2013-03-01 13:31:00,
2013-03-01 04:36:00,28.6,24.1,29.46,North,0,0.0,-999.0,82,0.00,,,-99.99,,2013-03-01 13:36:00,
2013-03-01 04:41:00,28.3,24.1,29.46,North,0,0.0,-999.0,83,0.00,,,-99.99,,2013-03-01 13:41:00,
2013-03-01 04:46:00,28.3,24.0,29.46,North,0,0.0,-999.0,83,0.00,,,-99.99,,2013-03-01 13:46:00,
2013-03-01 04:51:00,28.1,23.8,29.46,North,0,0.0,-999.0,83,0.00,,,-99.99,,2013-03-01 13:51:00,
2013-03-01 04:56:00,28.1,23.7,29.46,North,0,0.0,-999.0,83,0.00,,,-99.99,,2013-03-01 13:56:00,
2013-03-01 05:01:00,28.3,24.0,29.47,North,0,0.0,-999.0,83,0.00,,,-99.99,,2013-03-01 14:01:00,
2013-03-01 05:06:00,27.8,23.4,29.47,North,0,0.0,-999.0,83,0.00,,,-99.99,,2013-03-01 14:06:00,
2013-03-01 05:11:00,27.8,23.3,29.47,North,0,0.0,-999.0,82,0.00,,,-99.99,,2013-03-01 14:11:00,
2013-03-01 05:16:00,27.8,23.4,29.47,North,0,0.0,-999.0,83,0.00,,,-99.99,,2013-03-01 14:16:00,
2013-03-01 05:21:00,27.4,23.1,29.47,North,0,0.0,-999.0,83,0.00,,,-99.99,,2013-03-01 14:21:00,
2013-03-01 05:26:00,27.2,23.0,29.47,North,0,0.0,-999.0,83,0.00,,,-99.99,,2013-03-01 14:26:00,
2013-03-01 05:31:00,27.4,23.6,29.47,North,0,0.0,-999.0,85,0.00,,,-99.99,,2013-03-01 14:31:00,
2013-03-01 05:36:00,27.1,23.0,29.47,North,0,0.0,-999.0,84,0.00,,,-99.99,,2013-03-01 14:36:00,
2013-03-01 05:41:00,27.0,23.2,29.47,North,0,0.0,-999.0,85,0.00,,,-99.99,,2013-03-01 14:41:00,
2013-03-01 05:46:00,27.1,23.1,29.47,North,0,0.0,-999.0,84,0.00,,,-99.99,,2013-03-01 14:46:00,
2013-03-01 05:51:00,27.3,23.6,29.47,North,0,0.0,-999.0,85,0.00,,,-99.99,,2013-03-01 14:51:00,
2013-03-01 05:56:00,27.5,24.0,29.47,North,0,0.0,-999.0,86,0.00,,,-99.99,,2013-03-01 14:56:00,
2013-03-01 06:01:00,27.2,23.8,29.49,North,0,0.0,-999.0,86,0.00,,,-99.99,,2013-03-01 15:01:00,
2013-03-01 06:06:00,27.0,23.5,29.49,North,0,0.0,-999.0,86,0.00,,,-99.99,,2013-03-01 15:06:00,
2013-03-01 06:11:00,26.7,23.1,29.49,North,0,0.0,-999.0,86,0.00,,,-99.99,,2013-03-01 15:11:00,
2013-03-01 06:16:00,26.7,23.4,29.49,North,0,0.0,-999.0,86,0.00,,,-99.99,,2013-03-01 15:16:00,
2013-03-01 06:21:00,26.6,23.2,29.49,North,0,0.0,-999.0,86,0.00,,,-99.99,,2013-03-01 15:21:00,
2013-03-01 06:26:00,26.9,23.6,29.49,North,0,0.0,-999.0,87,0.00,,,-99.99,,2013-03-01 15:26:00,
2013-03-01 06:31:00,26.6,23.4,29.49,North,0,0.0,-999.0,87,0.00,,,-99.99,,2013-03-01 15:31:00,
2013-03-01 06:36:00,26.7,23.6,29.49,North,0,0.0,-999.0,88,0.00,,,-99.99,,2013-03-01 15:36:00,
2013-03-01 06:41:00,26.6,23.5,29.49,North,0,0.0,-999.0,87,0.00,,,-99.99,,2013-03-01 15:41:00,
2013-03-01 06:46:00,26.5,23.3,29.49,North,0,0.0,-999.0,87,0.00,,,-99.99,,2013-03-01 15:46:00,
2013-03-01 06:51:00,26.7,23.5,29.49,North,0,0.0,-999.0,87,0.00,,,-99.99,,2013-03-01 15:51:00,
2013-03-01 06:56:00,26.4,23.1,29.49,North,0,0.0,-999.0,86,0.00,,,-99.99,,2013-03-01 15:56:00,
2013-03-01 07:01:00,26.4,23.2,29.51,North,0,0.0,-999.0,87,0.00,,,-99.99,,2013-03-01 16:01:00,
2013-03-01 07:06:00,26.6,23.4,29.51,North,0,0.0,-999.0,87,0.00,,,-99.99,,2013-03-01 16:06:00,
2013-03-01 07:11:00,26.5,23.4,29.51,North,0,0.0,-999.0,87,0.00,,,-99.99,,2013-03-01 16:11:00,
2013-03-01 07:16:00,26.2,22.6,29.51,North,0,0.0,-999.0,86,0.00,,,-99.99,,2013-03-01 16:16:00,
2013-03-01 07:21:00,26.2,22.6,29.51,North,0,0.0,-999.0,85,0.00,,,-99.99,,2013-03-01 16:21:00,
2013-03-01 07:26:00,26.5,22.9,29.51,North,0,0.0,-999.0,85,0.00,,,-99.99,,2013-03-01 16:26:00,
2013-03-01 07:31:00,26.3,23.0,29.51,North,0,0.0,-999.0,87,0.00,,,-99.99,,2013-03-01 16:31:00,
2013-03-01 07:36:00,26.3,22.8,29.51,North,0,0.0,-999.0,86,0.00,,,-99.99,,2013-03-01 16:36:00,
2013-03-01 07:41:00,26.4,23.1,29.51,North,0,0.0,-999.0,87,0.00,,,-99.99,,2013-03-01 16:41:00,
2013-03-01 07:46:00,26.1,23.0,29.51,North,0,0.0,-999.0,87,0.00,,,-99.99,,2013-03-01 16:46:00,
2013-03-01 07:51:00,26.2,23.0,29.51,North,0,0.0,-999.0,87,0.00,,,-99.99,,2013-03-01 16:51:00,
2013-03-01 07:56:00,26.1,22.8,29.51,North,0,0.0,-999.0,86,0.00,,,-99.99,,2013-03-01 16:56:00,
2013-03-01 08:01:00,26.5,23.3,29.51,North,0,0.0,-999.0,87,0.00,,,-99.99,,2013-03-01 17:01:00,
2013-03-01 08:06:00,26.4,23.1,29.51,North,0,0.0,-999.0,87,0.00,,,-99.99,,2013-03-01 17:06:00,
2013-03-01 08:11:00,26.3,23.1,29.51,North,0,0.0,-999.0,87,0.00,,,-99.99,,2013-03-01 17:11:00,
2013-03-01 08:16:00,26.4,22.9,29.51,North,0,0.0,-999.0,86,0.00,,,-99.99,,2013-03-01 17:16:00,
2013-03-01 08:21:00,26.2,22.7,29.51,North,0,0.0,-999.0,86,0.00,,,-99.99,,2013-03-01 17:21:00,
2013-03-01 08:26:00,26.0,22.5,29.51,North,0,0.0,-999.0,86,0.00,,,-99.99,,2013-03-01 17:26:00,
2013-03-01 08:31:00,26.0,22.6,29.51,North,0,0.0,-999.0,86,0.00,,,-99.99,,2013-03-01 17:31:00,
2013-03-01 08:36:00,26.4,23.3,29.51,North,0,0.0,-999.0,87,0.00,,,-99.99,,2013-03-01 17:36:00,
2013-03-01 08:41:00,26.5,23.3,29.51,North,0,0.0,-999.0,87,0.00,,,-99.99,,2013-03-01 17:41:00,
2013-03-01 08:46:00,26.5,23.4,29.51,North,0,0.0,-999.0,87,0.00,,,-99.99,,2013-03-01 17:46:00,
2013-03-01 08:51:00,26.7,23.4,29.51,North,0,0.0,-999.0,87,0.00,,,-99.99,,2013-03-01 17:51:00,
2013-03-01 08:56:00,26.9,23.8,29.51,North,0,0.0,-999.0,88,0.00,,,-99.99,,2013-03-01 17:56:00,
2013-03-01 09:01:00,27.0,23.9,29.55,North,0,0.0,-999.0,88,0.00,,,-99.99,,2013-03-01 18:01:00,
2013-03-01 09:06:00,27.2,23.9,29.55,North,0,0.0,-999.0,87,0.00,,,-99.99,,2013-03-01 18:06:00,
2013-03-01 09:11:00,27.2,23.7,29.55,North,0,0.0,-999.0,86,0.00,,,-99.99,,2013-03-01 18:11:00,
2013-03-01 09:16:00,27.5,23.9,29.55,North,0,0.0,-999.0,86,0.00,,,-99.99,,2013-03-01 18:16:00,
2013-03-01 09:21:00,28.7,25.0,29.55,North,0,0.0,-999.0,85,0.00,,,-99.99,,2013-03-01 18:21:00,
2013-03-01 09:26:00,29.4,24.3,29.55,North,0,0.0,-999.0,80,0.00,,,-99.99,,2013-03-01 18:26:00,
2013-03-01 09:31:00,29.1,24.1,29.55,North,0,0.0,-999.0,81,0.00,,,-99.99,,2013-03-01 18:31:00,
2013-03-01 09:36:00,29.4,24.4,29.55,North,0,0.0,-999.0,81,0.00,,,-99.99,,2013-03-01 18:36:00,
2013-03-01 09:41:00,29.4,24.1,29.55,North,0,0.0,-999.0,80,0.00,,,-99.99,,2013-03-01 18:41:00,
2013-03-01 09:46:00,29.4,24.3,29.55,North,0,0.0,-999.0,81,0.00,,,-99.99,,2013-03-01 18:46:00,
2013-03-01 09:51:00,30.0,24.6,29.55,North,0,0.0,-999.0,80,0.00,,,-99.99,,2013-03-01 18:51:00,
2013-03-01 09:56:00,30.3,24.7,29.55,North,0,0.0,-999.0,79,0.00,,,-99.99,,2013-03-01 18:56:00,
2013-03-01 10:01:00,30.3,24.5,29.55,North,0,0.0,-999.0,78,0.00,,,-99.99,,2013-03-01 19:01:00,
2013-03-01 10:06:00,30.6,24.2,29.55,North,0,0.0,-999.0,76,0.00,,,-99.99,,2013-03-01 19:06:00,
2013-03-01 10:11:00,30.6,24.0,29.55,North,0,0.0,-999.0,75,0.00,,,-99.99,,2013-03-01 19:11:00,
2013-03-01 10:16:00,31.0,24.1,29.55,North,0,0.0,-999.0,75,0.00,,,-99.99,,2013-03-01 19:16:00,
2013-03-01 10:21:00,31.8,24.5,29.55,North,0,0.0,-999.0,74,0.00,,,-99.99,,2013-03-01 19:21:00,
2013-03-01 10:26:00,32.4,25.0,29.55,North,0,0.0,-999.0,73,0.00,,,-99.99,,2013-03-01 19:26:00,
2013-03-01 10:31:00,32.5,24.6,29.55,North,0,0.0,-999.0,72,0.00,,,-99.99,,2013-03-01 19:31:00,
2013-03-01 10:36:00,32.5,24.6,29.55,North,0,0.0,-999.0,72,0.00,,,-99.99,,2013-03-01 19:36:00,
2013-03-01 10:41:00,33.1,23.8,29.55,North,0,0.0,-999.0,68,0.00,,,-99.99,,2013-03-01 19:41:00,
2013-03-01 10:46:00,34.0,24.5,29.55,North,0,0.0,-999.0,67,0.00,,,-99.99,,2013-03-01 19:46:00,
2013-03-01 10:51:00,34.6,24.9,29.55,North,0,0.0,-999.0,67,0.00,,,-99.99,,2013-03-01 19:51:00,
2013-03-01 10:56:00,34.4,24.6,29.55,North,0,0.0,-999.0,67,0.00,,,-99.99,,2013-03-01 19:56:00,
2013-03-01 11:01:00,35.2,24.2,29.59,North,0,0.0,-999.0,63,0.00,,,-99.99,,2013-03-01 20:01:00,
2013-03-01 11:06:00,36.2,24.3,29.59,North,0,0.0,-999.0,61,0.00,,,-99.99,,2013-03-01 20:06:00,
2013-03-01 11:11:00,36.8,24.1,29.59,North,0,0.0,-999.0,59,0.00,,,-99.99,,2013-03-01 20:11:00,
2013-03-01 11:16:00,37.3,23.8,29.59,North,0,0.0,-999.0,57,0.00,,,-99.99,,2013-03-01 20:16:00,
2013-03-01 11:21:00,37.8,23.6,29.59,North,0,0.0,-999.0,56,0.00,,,-99.99,,2013-03-01 20:21:00,
2013-03-01 11:26:00,38.8,24.3,29.59,North,0,0.0,-999.0,55,0.00,,,-99.99,,2013-03-01 20:26:00,
2013-03-01 11:31:00,38.4,24.0,29.59,North,0,0.0,-999.0,55,0.00,,,-99.99,,2013-03-01 20:31:00,
2013-03-01 11:36:00,37.6,23.7,29.59,North,0,0.0,-999.0,56,0.00,,,-99.99,,2013-03-01 20:36:00,
2013-03-01 11:41:00,37.5,23.3,29.59,North,0,0.0,-999.0,56,0.00,,,-99.99,,2013-03-01 20:41:00,
2013-03-01 11:46:00,37.5,23.1,29.59,North,0,0.0,-999.0,55,0.00,,,-99.99,,2013-03-01 20:46:00,
2013-03-01 11:51:00,38.2,22.9,29.59,North,0,0.0,-999.0,53,0.00,,,-99.99,,2013-03-01 20:51:00,
2013-03-01 11:56:00,38.1,23.3,29.59,North,0,0.0,-999.0,54,0.00,,,-99.99,,2013-03-01 20:56:00,
2013-03-01 12:01:00,38.3,22.7,29.59,North,0,0.0,-999.0,52,0.00,,,-99.99,,2013-03-01 21:01:00,
2013-03-01 12:06:00,38.6,23.2,29.59,North,0,0.0,-999.0,53,0.00,,,-99.99,,2013-03-01 21:06:00,
2013-03-01 12:11:00,38.1,21.8,29.59,North,0,0.0,-999.0,51,0.00,,,-99.99,,2013-03-01 21:11:00,
2013-03-01 12:16:00,38.0,22.2,29.59,North,0,0.0,-999.0,52,0.00,,,-99.99,,2013-03-01 21:16:00,
2013-03-01 12:21:00,38.0,21.9,29.59,North,0,0.0,-999.0,51,0.00,,,-99.99,,2013-03-01 21:21:00,
2013-03-01 12:28:00,38.4,22.7,29.59,North,0,0.0,-999.0,52,0.00,,,-99.99,,2013-03-01 21:28:00,
2013-03-01 12:33:00,38.3,22.6,29.59,North,0,0.0,-999.0,52,0.00,,,-99.99,,2013-03-01 21:33:00,
2013-03-01 12:38:00,38.1,22.6,29.59,North,0,0.0,-999.0,53,0.00,,,-99.99,,2013-03-01 21:38:00,
2013-03-01 12:43:00,38.0,22.6,29.59,North,0,0.0,-999.0,53,0.00,,,-99.99,,2013-03-01 21:43:00,
2013-03-01 12:48:00,38.1,22.2,29.59,North,0,0.0,-999.0,52,0.00,,,-99.99,,2013-03-01 21:48:00,
2013-03-01 12:53:00,37.8,22.2,29.59,North,0,0.0,-999.0,52,0.00,,,-99.99,,2013-03-01 21:53:00,
2013-03-01 12:58:00,38.5,23.4,29.59,North,0,0.0,-999.0,54,0.00,,,-99.99,,2013-03-01 21:58:00,
2013-03-01 13:03:00,38.8,22.0,29.62,North,0,0.0,-999.0,50,0.00,,,-99.99,,2013-03-01 22:03:00,
2013-03-01 13:08:00,37.7,20.7,29.62,North,0,0.0,-999.0,49,0.00,,,-99.99,,2013-03-01 22:08:00,
2013-03-01 13:13:00,37.5,22.9,29.62,North,0,0.0,-999.0,55,0.00,,,-99.99,,2013-03-01 22:13:00,
2013-03-01 13:18:00,37.8,23.4,29.62,North,0,0.0,-999.0,55,0.00,,,-99.99,,2013-03-01 22:18:00,
2013-03-01 13:23:00,37.8,23.0,29.62,North,0,0.0,-999.0,54,0.00,,,-99.99,,2013-03-01 22:23:00,
2013-03-01 13:28:00,37.9,22.8,29.62,North,0,0.0,-999.0,54,0.00,,,-99.99,,2013-03-01 22:28:00,
2013-03-01 13:33:00,37.3,23.0,29.62,North,0,0.0,-999.0,55,0.00,,,-99.99,,2013-03-01 22:33:00,
2013-03-01 13:38:00,37.3,21.9,29.62,North,0,0.0,-999.0,53,0.00,,,-99.99,,2013-03-01 22:38:00,
2013-03-01 13:43:00,36.9,22.6,29.62,North,0,0.0,-999.0,55,0.00,,,-99.99,,2013-03-01 22:43:00,
2013-03-01 13:48:00,37.5,22.5,29.62,North,0,0.0,-999.0,54,0.00,,,-99.99,,2013-03-01 22:48:00,
2013-03-01 13:53:00,38.4,22.7,29.62,North,0,0.0,-999.0,52,0.00,,,-99.99,,2013-03-01 22:53:00,
2013-03-01 13:58:00,38.5,20.9,29.62,North,0,0.0,-999.0,48,0.00,,,-99.99,,2013-03-01 22:58:00,
2013-03-01 14:03:00,37.4,22.3,29.65,North,0,0.0,-999.0,54,0.00,,,-99.99,,2013-03-01 23:03:00,
2013-03-01 14:08:00,37.9,22.5,29.65,North,0,0.0,-999.0,53,0.00,,,-99.99,,2013-03-01 23:08:00,
2013-03-01 14:13:00,37.6,22.5,29.65,North,0,0.0,-999.0,54,0.00,,,-99.99,,2013-03-01 23:13:00,
2013-03-01 14:18:00,38.3,22.9,29.65,North,0,0.0,-999.0,53,0.00,,,-99.99,,2013-03-01 23:18:00,
2013-03-01 14:23:00,39.0,21.3,29.65,North,0,0.0,-999.0,48,0.00,,,-99.99,,2013-03-01 23:23:00,
2013-03-01 14:28:00,38.4,21.1,29.65,North,0,0.0,-999.0,49,0.00,,,-99.99,,2013-03-01 23:28:00,
2013-03-01 14:33:00,38.3,21.6,29.65,North,0,0.0,-999.0,50,0.00,,,-99.99,,2013-03-01 23:33:00,
2013-03-01 14:38:00,38.3,21.7,29.65,North,0,0.0,-999.0,50,0.00,,,-99.99,,2013-03-01 23:38:00,
2013-03-01 14:43:00,38.6,22.7,29.65,North,0,0.0,-999.0,52,0.00,,,-99.99,,2013-03-01 23:43:00,
2013-03-01 14:48:00,37.2,23.3,29.65,North,0,0.0,-999.0,56,0.00,,,-99.99,,2013-03-01 23:48:00,
2013-03-01 14:53:00,36.6,23.5,29.65,North,0,0.0,-999.0,58,0.00,,,-99.99,,2013-03-01 23:53:00,
2013-03-01 14:58:00,36.5,23.7,29.65,North,0,0.0,-999.0,59,0.00,,,-99.99,,2013-03-01 23:58:00,
2013-03-01 15:03:00,36.5,24.3,29.67,North,0,0.0,-999.0,61,0.00,,,-99.99,,2013-03-02 00:03:00,
2013-03-01 15:08:00,36.0,24.8,29.67,North,0,0.0,-999.0,63,0.00,,,-99.99,,2013-03-02 00:08:00,
2013-03-01 15:13:00,35.9,24.5,29.67,North,0,0.0,-999.0,62,0.00,,,-99.99,,2013-03-02 00:13:00,
2013-03-01 15:18:00,35.7,24.8,29.67,North,0,0.0,-999.0,64,0.00,,,-99.99,,2013-03-02 00:18:00,
2013-03-01 15:23:00,35.6,25.1,29.67,North,0,0.0,-999.0,65,0.00,,,-99.99,,2013-03-02 00:23:00,
2013-03-01 15:28:00,35.7,24.5,29.67,North,0,0.0,-999.0,63,0.00,,,-99.99,,2013-03-02 00:28:00,
2013-03-01 15:33:00,35.5,24.8,29.67,North,0,0.0,-999.0,64,0.00,,,-99.99,,2013-03-02 00:33:00,
2013-03-01 15:38:00,35.6,24.5,29.67,North,0,0.0,-999.0,63,0.00,,,-99.99,,2013-03-02 00:38:00,
2013-03-01 15:43:00,35.4,25.0,29.67,North,0,0.0,-999.0,65,0.00,,,-99.99,,2013-03-02 00:43:00,
2013-03-01 15:48:00,35.4,25.1,29.67,North,0,0.0,-999.0,65,0.00,,,-99.99,,2013-03-02 00:48:00,
2013-03-01 15:53:00,35.4,25.5,29.67,North,0,0.0,-999.0,67,0.00,,,-99.99,,2013-03-02 00:53:00,
2013-03-01 15:58:00,35.6,23.7,29.67,North,0,0.0,-999.0,61,0.00,,,-99.99,,2013-03-02 00:58:00,
2013-03-01 16:03:00,35.9,24.0,29.67,North,0,0.0,-999.0,61,0.00,,,-99.99,,2013-03-02 01:03:00,
2013-03-01 16:08:00,36.0,24.0,29.67,North,0,0.0,-999.0,61,0.00,,,-99.99,,2013-03-02 01:08:00,
2013-03-01 16:13:00,35.9,23.9,29.67,North,0,0.0,-999.0,61,0.00,,,-99.99,,2013-03-02 01:13:00,
2013-03-01 16:18:00,35.7,24.7,29.67,North,0,0.0,-999.0,63,0.00,,,-99.99,,2013-03-02 01:18:00,
2013-03-01 16:23:00,35.6,24.3,29.67,North,0,0.0,-999.0,62,0.00,,,-99.99,,2013-03-02 01:23:00,
2013-03-01 16:28:00,35.4,24.8,29.67,North,0,0.0,-999.0,64,0.00,,,-99.99,,2013-03-02 01:28:00,
2013-03-01 16:33:00,35.3,24.3,29.67,North,0,0.0,-999.0,63,0.00,,,-99.99,,2013-03-02 01:33:00,
2013-03-01 16:38:00,35.1,23.5,29.67,North,0,0.0,-999.0,62,0.00,,,-99.99,,2013-03-02 01:38:00,
2013-03-01 16:43:00,34.9,23.0,29.67,North,0,0.0,-999.0,61,0.00,,,-99.99,,2013-03-02 01:43:00,
2013-03-01 16:50:00,34.6,23.0,29.67,North,0,0.0,-999.0,62,0.00,,,-99.99,,2013-03-02 01:50:00,
2013-03-01 16:55:00,34.7,23.3,29.67,North,0,0.0,-999.0,62,0.00,,,-99.99,,2013-03-02 01:55:00,
2013-03-01 17:00:00,34.6,23.3,29.69,North,0,0.0,-999.0,62,0.00,,,-99.99,,2013-03-02 02:00:00,
2013-03-01 17:05:00,34.4,22.5,29.69,North,0,0.0,-999.0,61,0.00,,,-99.99,,2013-03-02 02:05:00,
2013-03-01 17:10:00,34.5,22.5,29.69,North,0,0.0,-999.0,61,0.00,,,-99.99,,2013-03-02 02:10:00,
2013-03-01 17:15:00,34.8,22.3,29.69,North,0,0.0,-999.0,59,0.00,,,-99.99,,2013-03-02 02:15:00,
2013-03-01 17:20:00,35.3,24.6,29.69,North,0,0.0,-999.0,64,0.00,,,-99.99,,2013-03-02 02:20:00,
2013-03-01 17:25:00,35.4,24.9,29.69,North,0,0.0,-999.0,65,0.00,,,-99.99,,2013-03-02 02:25:00,
2013-03-01 17:30:00,35.2,24.9,29.69,North,0,0.0,-999.0,65,0.00,,,-99.99,,2013-03-02 02:30:00,
2013-03-01 17:35:00,34.9,25.0,29.69,North,0,0.0,-999.0,66,0.00,,,-99.99,,2013-03-02 02:35:00,
2013-03-01 17:40:00,35.0,25.0,29.69,North,0,0.0,-999.0,66,0.00,,,-99.99,,2013-03-02 02:40:00,
2013-03-01 17:45:00,35.4,25.2,29.69,North,0,0.0,-999.0,66,0.00,,,-99.99,,2013-03-02 02:45:00,
2013-03-01 17:50:00,35.4,24.8,29.69,North,0,0.0,-999.0,64,0.00,,,-99.99,,2013-03-02 02:50:00,
2013-03-01 17:55:00,35.1,25.2,29.69,North,0,0.0,-999.0,66,0.00,,,-99.99,,2013-03-02 02:55:00,
2013-03-01 18:00:00,35.1,24.7,29.71,North,0,0.0,-999.0,65,0.00,,,-99.99,,2013-03-02 03:00:00,
2013-03-01 18:05:00,35.1,24.9,29.71,North,0,0.0,-999.0,66,0.00,,,-99.99,,2013-03-02 03:05:00,
2013-03-01 18:10:00,35.0,24.8,29.71,North,0,0.0,-999.0,66,0.00,,,-99.99,,2013-03-02 03:10:00,
2013-03-01 18:15:00,34.2,25.4,29.71,North,0,0.0,-999.0,69,0.00,,,-99.99,,2013-03-02 03:15:00,
2013-03-01 18:20:00,33.8,25.2,29.71,North,0,0.0,-999.0,70,0.00,,,-99.99,,2013-03-02 03:20:00,
2013-03-01 18:25:00,33.4,25.0,29.71,North,0,0.0,-999.0,70,0.00,,,-99.99,,2013-03-02 03:25:00,
2013-03-01 18:30:00,33.0,24.9,29.71,North,0,0.0,-999.0,71,0.00,,,-99.99,,2013-03-02 03:30:00,
2013-03-01 18:35:00,33.1,25.5,29.71,North,0,0.0,-999.0,73,0.00,,,-99.99,,2013-03-02 03:35:00,
2013-03-01 18:41:00,32.6,25.4,29.71,North,0,0.0,-999.0,74,0.00,,,-99.99,,2013-03-02 03:41:00,
2013-03-01 18:47:00,32.1,24.8,29.71,North,0,0.0,-999.0,74,0.00,,,-99.99,,2013-03-02 03:47:00,
2013-03-01 18:52:00,31.8,25.1,29.71,North,0,0.0,-999.0,75,0.00,,,-99.99,,2013-03-02 03:52:00,
2013-03-01 18:57:00,31.6,25.2,29.71,North,0,0.0,-999.0,76,0.00,,,-99.99,,2013-03-02 03:57:00,
2013-03-01 19:02:00,31.5,25.5,29.72,North,0,0.0,-999.0,78,0.00,,,-99.99,,2013-03-02 04:02:00,
2013-03-01 19:07:00,31.1,25.2,29.72,North,0,0.0,-999.0,78,0.00,,,-99.99,,2013-03-02 04:07:00,
2013-03-01 19:12:00,31.0,25.5,29.72,North,0,0.0,-999.0,79,0.00,,,-99.99,,2013-03-02 04:12:00,
2013-03-01 19:17:00,30.8,25.5,29.72,North,0,0.0,-999.0,80,0.00,,,-99.99,,2013-03-02 04:17:00,
2013-03-01 19:22:00,30.6,25.4,29.72,North,0,0.0,-999.0,80,0.00,,,-99.99,,2013-03-02 04:22:00,
2013-03-01 19:27:00,30.6,25.7,29.72,North,0,0.0,-999.0,81,0.00,,,-99.99,,2013-03-02 04:27:00,
2013-03-01 19:32:00,30.3,25.2,29.72,North,0,0.0,-999.0,80,0.00,,,-99.99,,2013-03-02 04:32:00,
2013-03-01 19:37:00,30.2,25.5,29.72,North,0,0.0,-999.0,82,0.00,,,-99.99,,2013-03-02 04:37:00,
2013-03-01 19:42:00,30.0,25.3,29.72,North,0,0.0,-999.0,82,0.00,,,-99.99,,2013-03-02 04:42:00,
2013-03-01 19:47:00,29.9,25.2,29.72,North,0,0.0,-999.0,82,0.00,,,-99.99,,2013-03-02 04:47:00,
2013-03-01 19:52:00,29.8,25.4,29.72,North,0,0.0,-999.0,83,0.00,,,-99.99,,2013-03-02 04:52:00,
2013-03-01 19:57:00,29.9,25.7,29.72,North,0,0.0,-999.0,84,0.00,,,-99.99,,2013-03-02 04:57:00,
2013-03-01 20:00:00,29.8,25.7,29.75,North,0,0.0,-999.0,84,0.00,,,-99.99,,2013-03-02 05:00:00,
2013-03-01 20:04:00,29.7,25.6,29.75,North,0,0.0,-999.0,84,0.00,,,-99.99,,2013-03-02 05:04:00,
2013-03-01 20:09:00,29.5,25.4,29.75,North,0,0.0,-999.0,84,0.00,,,-99.99,,2013-03-02 05:09:00,
2013-03-01 20:13:00,29.6,25.6,29.75,North,0,0.0,-999.0,84,0.00,,,-99.99,,2013-03-02 05:13:00,
2013-03-01 20:18:00,29.6,25.6,29.75,North,0,0.0,-999.0,84,0.00,,,-99.99,,2013-03-02 05:18:00,
2013-03-01 20:23:00,29.5,25.5,29.75,North,0,0.0,-999.0,84,0.00,,,-99.99,,2013-03-02 05:23:00,
2013-03-01 20:28:00,29.2,25.2,29.75,North,0,0.0,-999.0,84,0.00,,,-99.99,,2013-03-02 05:28:00,
2013-03-01 20:33:00,29.1,25.2,29.75,North,0,0.0,-999.0,85,0.00,,,-99.99,,2013-03-02 05:33:00,
2013-03-01 20:38:00,29.1,25.1,29.75,North,0,0.0,-999.0,84,0.00,,,-99.99,,2013-03-02 05:38:00,
2013-03-01 20:40:00,29.2,25.1,29.75,North,0,0.0,-999.0,84,0.00,,,-99.99,,2013-03-02 05:40:00,
2013-03-01 20:45:00,29.4,25.4,29.75,North,0,0.0,-999.0,84,0.00,,,-99.99,,2013-03-02 05:45:00,
2013-03-01 20:50:00,29.3,25.5,29.75,North,0,0.0,-999.0,85,0.00,,,-99.99,,2013-03-02 05:50:00,
2013-03-01 20:55:00,29.1,25.3,29.75,North,0,0.0,-999.0,85,0.00,,,-99.99,,2013-03-02 05:55:00,
2013-03-01 21:00:00,29.2,25.4,29.77,North,0,0.0,-999.0,85,0.00,,,-99.99,,2013-03-02 06:00:00,
2013-03-01 21:05:00,29.3,25.4,29.77,North,0,0.0,-999.0,85,0.00,,,-99.99,,2013-03-02 06:05:00,
2013-03-01 21:10:00,29.4,25.4,29.77,North,0,0.0,-999.0,85,0.00,,,-99.99,,2013-03-02 06:10:00,
2013-03-01 21:15:00,29.4,25.6,29.77,North,0,0.0,-999.0,85,0.00,,,-99.99,,2013-03-02 06:15:00,
2013-03-01 21:20:00,29.1,25.1,29.77,North,0,0.0,-999.0,84,0.00,,,-99.99,,2013-03-02 06:20:00,
2013-03-01 21:25:00,29.0,24.7,29.77,North,0,0.0,-999.0,83,0.00,,,-99.99,,2013-03-02 06:25:00,
2013-03-01 21:30:00,29.1,25.0,29.77,North,0,0.0,-999.0,84,0.00,,,-99.99,,2013-03-02 06:30:00,
2013-03-01 21:35:00,29.1,25.4,29.77,North,0,0.0,-999.0,85,0.00,,,-99.99,,2013-03-02 06:35:00,
2013-03-01 21:40:00,28.9,25.5,29.77,North,0,0.0,-999.0,86,0.00,,,-99.99,,2013-03-02 06:40:00,
2013-03-01 21:45:00,28.8,25.2,29.77,North,0,0.0,-999.0,86,0.00,,,-99.99,,2013-03-02 06:45:00,
2013-03-01 21:50:00,28.9,25.4,29.77,North,0,0.0,-999.0,86,0.00,,,-99.99,,2013-03-02 06:50:00,
2013-03-01 21:55:00,28.9,25.6,29.77,North,0,0.0,-999.0,87,0.00,,,-99.99,,2013-03-02 06:55:00,
2013-03-01 22:00:00,29.1,25.6,29.78,North,0,0.0,-999.0,86,0.00,,,-99.99,,2013-03-02 07:00:00,
2013-03-01 22:05:00,29.2,25.6,29.78,North,0,0.0,-999.0,86,0.00,,,-99.99,,2013-03-02 07:05:00,
2013-03-01 22:10:00,29.6,25.8,29.78,North,0,0.0,-999.0,85,0.00,,,-99.99,,2013-03-02 07:10:00,
2013-03-01 22:15:00,29.6,25.5,29.78,North,0,0.0,-999.0,84,0.00,,,-99.99,,2013-03-02 07:15:00,
2013-03-01 22:20:00,29.7,25.6,29.78,North,0,0.0,-999.0,84,0.00,,,-99.99,,2013-03-02 07:20:00,
2013-03-01 22:25:00,29.4,25.2,29.78,North,0,0.0,-999.0,84,0.00,,,-99.99,,2013-03-02 07:25:00,
2013-03-01 22:30:00,29.6,25.4,29.78,North,0,0.0,-999.0,83,0.00,,,-99.99,,2013-03-02 07:30:00,
2013-03-01 22:35:00,29.4,24.9,29.78,North,0,0.0,-999.0,83,0.00,,,-99.99,,2013-03-02 07:35:00,
2013-03-01 22:40:00,29.4,25.3,29.78,North,0,0.0,-999.0,84,0.00,,,-99.99,,2013-03-02 07:40:00,
2013-03-01 22:45:00,29.1,25.2,29.78,North,0,0.0,-999.0,85,0.00,,,-99.99,,2013-03-02 07:45:00,
2013-03-01 22:50:00,29.0,25.2,29.78,North,0,0.0,-999.0,85,0.00,,,-99.99,,2013-03-02 07:50:00,
2013-03-01 22:55:00,29.1,25.6,29.78,North,0,0.0,-999.0,86,0.00,,,-99.99,,2013-03-02 07:55:00,
2013-03-01 23:00:00,29.3,26.0,29.78,North,0,0.0,-999.0,87,0.00,,,-99.99,,2013-03-02 08:00:00,
2013-03-01 23:05:00,29.5,26.3,29.78,North,0,0.0,-999.0,87,0.00,,,-99.99,,2013-03-02 08:05:00,
2013-03-01 23:10:00,29.6,26.4,29.78,North,0,0.0,-999.0,87,0.00,,,-99.99,,2013-03-02 08:10:00,
2013-03-01 23:15:00,29.9,26.4,29.78,North,0,0.0,-999.0,86,0.00,,,-99.99,,2013-03-02 08:15:00,
2013-03-01 23:20:00,29.9,26.2,29.78,North,0,0.0,-999.0,86,0.00,,,-99.99,,2013-03-02 08:20:00,
2013-03-01 23:25:00,30.3,26.5,29.78,North,0,0.0,-999.0,85,0.00,,,-99.99,,2013-03-02 08:25:00,
2013-03-01 23:30:00,30.2,26.4,29.78,North,0,0.0,-999.0,85,0.00,,,-99.99,,2013-03-02 08:30:00,
2013-03-01 23:35:00,30.4,26.8,29.78,North,0,0.0,-999.0,86,0.00,,,-99.99,,2013-03-02 08:35:00,
2013-03-01 23:40:00,30.5,27.0,29.78,North,0,0.0,-999.0,86,0.00,,,-99.99,,2013-03-02 08:40:00,
2013-03-01 23:45:00,30.5,27.0,29.78,North,0,0.0,-999.0,86,0.00,,,-99.99,,2013-03-02 08:45:00,
2013-03-01 23:50:00,30.6,26.9,29.78,North,0,0.0,-999.0,86,0.00,,,-99.99,,2013-03-02 08:50:00,
2013-03-01 23:55:00,30.9,27.4,29.78,North,0,0.0,-999.0,86,0.00,,,-99.99,,2013-03-02 08:55:00,